Time,TemperatureF,DewpointF,PressureIn,WindDirection,WindDirectionDegrees,WindSpeedMPH,WindSpeedGustMPH,Humidity,HourlyPrecipIn,Conditions,Clouds,dailyrainin,SoftwareType,DateUTC
2013-04-09 00:02:00,47.0,44.0,29.94,ENE,62,3.0,7.0,90,0.00,,,0.71,,2013-04-09 05:02:00,
2013-04-09 00:12:00,46.0,43.0,29.94,ENE,58,3.0,7.0,90,0.00,,,0.71,,2013-04-09 05:12:00,
2013-04-09 00:22:00,46.0,43.0,29.94,ENE,58,3.0,7.0,90,0.00,,,0.71,,2013-04-09 05:22:00,
2013-04-09 00:32:00,46.0,43.0,29.95,ENE,78,3.0,6.0,90,0.00,,,0.71,,2013-04-09 05:32:00,
2013-04-09 00:42:00,45.0,43.0,29.95,ENE,60,2.0,6.0,91,0.00,,,0.71,,2013-04-09 05:42:00,
2013-04-09 00:52:00,45.0,43.0,29.95,ENE,60,2.0,6.0,91,0.00,,,0.71,,2013-04-09 05:52:00,
2013-04-09 01:02:00,45.0,43.0,29.96,East,85,2.0,7.0,92,0.00,,,0.71,,2013-04-09 06:02:00,
2013-04-09 01:12:00,44.0,42.0,29.96,East,83,3.0,8.0,92,0.00,,,0.71,,2013-04-09 06:12:00,
2013-04-09 01:22:00,44.0,42.0,29.96,East,83,3.0,8.0,92,0.00,,,0.71,,2013-04-09 06:22:00,
2013-04-09 01:32:00,44.0,42.0,29.95,NE,39,3.0,6.0,93,0.00,,,0.71,,2013-04-09 06:32:00,
2013-04-09 01:42:00,44.0,42.0,29.95,NE,39,3.0,6.0,93,0.00,,,0.71,,2013-04-09 06:42:00,
2013-04-09 01:52:00,43.0,41.0,29.95,ESE,112,4.0,8.0,93,0.00,,,0.71,,2013-04-09 06:52:00,
2013-04-09 02:02:00,43.0,41.0,29.96,ESE,108,6.0,9.0,94,0.00,,,0.71,,2013-04-09 07:02:00,
2013-04-09 02:12:00,43.0,41.0,29.96,ESE,108,6.0,9.0,94,0.00,,,0.71,,2013-04-09 07:12:00,
2013-04-09 02:22:00,43.0,41.0,29.95,NE,46,3.0,12.0,94,0.00,,,0.71,,2013-04-09 07:22:00,
2013-04-09 02:32:00,43.0,42.0,29.94,ENE,75,4.0,13.0,95,0.00,,,0.71,,2013-04-09 07:32:00,
2013-04-09 02:42:00,43.0,42.0,29.94,ENE,75,4.0,13.0,95,0.00,,,0.71,,2013-04-09 07:42:00,
2013-04-09 02:52:00,43.0,42.0,29.94,East,82,4.0,12.0,95,0.00,,,0.71,,2013-04-09 07:52:00,
2013-04-09 03:03:00,42.0,41.0,29.94,NE,50,3.0,9.0,96,0.00,,,0.71,,2013-04-09 08:03:00,
2013-04-09 03:12:00,42.0,41.0,29.94,NE,50,3.0,9.0,96,0.00,,,0.71,,2013-04-09 08:12:00,
2013-04-09 03:22:00,42.0,41.0,29.93,ENE,78,5.0,12.0,96,0.00,,,0.71,,2013-04-09 08:22:00,
2013-04-09 03:32:00,42.0,41.0,29.94,East,94,8.0,14.0,96,0.00,,,0.71,,2013-04-09 08:32:00,
2013-04-09 03:42:00,42.0,41.0,29.94,East,94,8.0,14.0,96,0.00,,,0.71,,2013-04-09 08:42:00,
2013-04-09 03:52:00,41.0,40.0,29.95,East,93,8.0,13.0,96,0.00,,,0.71,,2013-04-09 08:52:00,
2013-04-09 04:02:00,41.0,40.0,29.94,East,86,4.0,13.0,96,0.00,,,0.71,,2013-04-09 09:02:00,
2013-04-09 04:12:00,41.0,40.0,29.94,East,86,4.0,13.0,96,0.00,,,0.71,,2013-04-09 09:12:00,
2013-04-09 04:22:00,41.0,40.0,29.96,ESE,108,6.0,14.0,96,0.00,,,0.71,,2013-04-09 09:22:00,
2013-04-09 04:33:00,41.0,40.0,29.94,ENE,63,3.0,13.0,96,0.04,,,0.75,,2013-04-09 09:33:00,
2013-04-09 04:43:00,41.0,40.0,29.94,ENE,63,3.0,13.0,96,0.04,,,0.75,,2013-04-09 09:43:00,
2013-04-09 04:52:00,41.0,40.0,29.95,East,84,5.0,8.0,96,0.07,,,0.78,,2013-04-09 09:52:00,
2013-04-09 05:03:00,41.0,40.0,29.90,East,93,12.0,21.0,97,0.11,,,0.82,,2013-04-09 10:03:00,
2013-04-09 05:12:00,41.0,40.0,29.90,East,93,12.0,21.0,97,0.11,,,0.82,,2013-04-09 10:12:00,
2013-04-09 05:23:00,41.0,40.0,29.91,East,84,4.0,16.0,97,0.14,,,0.85,,2013-04-09 10:23:00,
2013-04-09 05:33:00,42.0,41.0,29.88,East,99,13.0,23.0,97,0.13,,,0.88,,2013-04-09 10:33:00,
2013-04-09 05:42:00,42.0,41.0,29.88,East,99,13.0,23.0,97,0.13,,,0.88,,2013-04-09 10:42:00,
2013-04-09 05:52:00,42.0,41.0,29.88,East,99,13.0,23.0,97,0.13,,,0.88,,2013-04-09 10:52:00,
2013-04-09 06:02:00,42.0,41.0,29.90,NE,46,4.0,7.0,96,0.06,,,0.79,,2013-04-09 11:02:00,
2013-04-09 06:12:00,42.0,41.0,29.90,NE,46,4.0,7.0,96,0.06,,,0.79,,2013-04-09 11:12:00,
2013-04-09 06:22:00,42.0,41.0,29.90,NE,44,3.0,9.0,96,0.04,,,0.75,,2013-04-09 11:22:00,
2013-04-09 06:32:00,42.0,41.0,29.91,NNE,25,3.0,7.0,96,0.04,,,0.75,,2013-04-09 11:32:00,
2013-04-09 06:42:00,42.0,41.0,29.91,NNE,25,3.0,7.0,96,0.04,,,0.75,,2013-04-09 11:42:00,
2013-04-09 06:52:00,42.0,41.0,29.93,ESE,109,2.0,7.0,96,0.06,,,0.76,,2013-04-09 11:52:00,
2013-04-09 07:02:00,41.0,40.0,29.95,NNE,32,4.0,7.0,96,0.19,,,0.87,,2013-04-09 12:02:00,
2013-04-09 07:12:00,41.0,40.0,29.95,NNE,32,4.0,7.0,96,0.19,,,0.87,,2013-04-09 12:12:00,
2013-04-09 07:22:00,41.0,40.0,29.91,ENE,73,6.0,18.0,96,0.20,,,0.86,,2013-04-09 12:22:00,
2013-04-09 07:32:00,41.0,40.0,29.93,NE,38,5.0,14.0,96,0.18,,,0.70,,2013-04-09 12:32:00,
2013-04-09 07:42:00,41.0,40.0,29.93,NE,38,5.0,14.0,96,0.18,,,0.70,,2013-04-09 12:42:00,
2013-04-09 07:52:00,41.0,40.0,29.91,NNE,20,6.0,12.0,96,0.16,,,0.64,,2013-04-09 12:52:00,
2013-04-09 08:02:00,41.0,40.0,29.91,East,92,6.0,12.0,96,0.03,,,0.53,,2013-04-09 13:02:00,
2013-04-09 08:12:00,41.0,40.0,29.91,East,92,6.0,12.0,96,0.03,,,0.53,,2013-04-09 13:12:00,
2013-04-09 08:23:00,41.0,40.0,29.91,NNE,16,4.0,9.0,96,0.01,,,0.50,,2013-04-09 13:23:00,
2013-04-09 08:32:00,41.0,40.0,29.90,ENE,63,5.0,12.0,96,0.00,,,0.43,,2013-04-09 13:32:00,
2013-04-09 08:42:00,41.0,40.0,29.90,ENE,63,5.0,12.0,96,0.00,,,0.43,,2013-04-09 13:42:00,
2013-04-09 08:52:00,42.0,41.0,29.92,SE,139,5.0,13.0,96,0.22,,,0.65,,2013-04-09 13:52:00,
2013-04-09 09:03:00,41.0,40.0,29.88,SE,126,8.0,16.0,96,0.56,,,0.97,,2013-04-09 14:03:00,
2013-04-09 09:12:00,41.0,40.0,29.88,SE,126,8.0,16.0,96,0.56,,,0.97,,2013-04-09 14:12:00,
2013-04-09 09:22:00,41.0,40.0,29.87,ENE,59,7.0,13.0,96,0.58,,,0.98,,2013-04-09 14:22:00,
2013-04-09 09:32:00,41.0,40.0,29.88,East,85,5.0,18.0,96,0.67,,,1.07,,2013-04-09 14:32:00,
2013-04-09 09:42:00,41.0,40.0,29.88,East,85,5.0,18.0,96,0.67,,,1.07,,2013-04-09 14:42:00,
2013-04-09 09:52:00,42.0,41.0,29.93,WNW,282,7.0,13.0,96,0.76,,,1.38,,2013-04-09 14:52:00,
2013-04-09 10:02:00,42.0,41.0,29.90,North,9,5.0,15.0,97,1.12,,,2.08,,2013-04-09 15:02:00,
2013-04-09 10:12:00,42.0,41.0,29.90,North,9,5.0,15.0,97,1.12,,,2.08,,2013-04-09 15:12:00,
2013-04-09 10:22:00,42.0,41.0,29.88,NE,47,5.0,13.0,97,1.10,,,2.07,,2013-04-09 15:22:00,
2013-04-09 10:33:00,43.0,42.0,29.88,ENE,76,2.0,10.0,97,1.03,,,2.09,,2013-04-09 15:33:00,
2013-04-09 10:43:00,43.0,42.0,29.88,ENE,76,2.0,10.0,97,1.03,,,2.09,,2013-04-09 15:43:00,
2013-04-09 10:53:00,43.0,42.0,29.88,NNE,26,0.0,5.0,97,0.72,,,2.09,,2013-04-09 15:53:00,
2013-04-09 11:03:00,43.0,42.0,29.86,East,84,2.0,6.0,97,0.03,,,2.10,,2013-04-09 16:03:00,
2013-04-09 11:13:00,43.0,42.0,29.86,East,84,2.0,6.0,97,0.03,,,2.10,,2013-04-09 16:13:00,
2013-04-09 11:23:00,44.0,43.0,29.86,ENE,62,3.0,5.0,97,0.03,,,2.10,,2013-04-09 16:23:00,
2013-04-09 11:33:00,45.0,44.0,29.85,East,100,5.0,13.0,97,0.03,,,2.12,,2013-04-09 16:33:00,
2013-04-09 11:42:00,45.0,44.0,29.85,East,100,5.0,13.0,97,0.03,,,2.12,,2013-04-09 16:42:00,
2013-04-09 11:53:00,45.0,44.0,29.84,East,96,10.0,17.0,97,0.04,,,2.13,,2013-04-09 16:53:00,
2013-04-09 12:02:00,45.0,44.0,29.84,East,98,10.0,15.0,96,0.04,,,2.14,,2013-04-09 17:02:00,
2013-04-09 12:12:00,45.0,44.0,29.84,East,98,10.0,15.0,96,0.04,,,2.14,,2013-04-09 17:12:00,
2013-04-09 12:23:00,46.0,45.0,29.83,East,88,11.0,18.0,96,0.04,,,2.14,,2013-04-09 17:23:00,
2013-04-09 12:32:00,46.0,45.0,29.83,ESE,102,10.0,16.0,95,0.03,,,2.15,,2013-04-09 17:32:00,
2013-04-09 12:42:00,46.0,45.0,29.83,ESE,102,10.0,16.0,95,0.03,,,2.15,,2013-04-09 17:42:00,
2013-04-09 12:53:00,46.0,45.0,29.83,East,89,7.0,16.0,95,0.02,,,2.15,,2013-04-09 17:53:00,
2013-04-09 13:02:00,45.0,44.0,29.84,East,87,6.0,12.0,95,0.01,,,2.15,,2013-04-09 18:02:00,
2013-04-09 13:12:00,45.0,44.0,29.84,East,87,6.0,12.0,95,0.01,,,2.15,,2013-04-09 18:12:00,
2013-04-09 13:22:00,45.0,44.0,29.84,East,79,3.0,8.0,95,0.01,,,2.15,,2013-04-09 18:22:00,
2013-04-09 13:33:00,45.0,44.0,29.87,North,351,2.0,6.0,95,0.01,,,2.16,,2013-04-09 18:33:00,
2013-04-09 13:43:00,45.0,44.0,29.87,North,351,2.0,6.0,95,0.01,,,2.16,,2013-04-09 18:43:00,
2013-04-09 13:52:00,45.0,44.0,29.85,NE,39,4.0,8.0,96,0.01,,,2.16,,2013-04-09 18:52:00,
2013-04-09 14:02:00,45.0,44.0,29.85,NE,39,4.0,8.0,96,0.01,,,2.16,,2013-04-09 19:02:00,
2013-04-09 14:12:00,45.0,44.0,29.85,NE,39,4.0,8.0,96,0.01,,,2.16,,2013-04-09 19:12:00,
2013-04-09 14:22:00,45.0,44.0,29.85,NE,39,4.0,8.0,96,0.01,,,2.16,,2013-04-09 19:22:00,
2013-04-09 14:32:00,45.0,44.0,29.81,ESE,110,12.0,16.0,95,0.01,,,2.16,,2013-04-09 19:32:00,
2013-04-09 14:41:00,45.0,44.0,29.81,ESE,110,12.0,16.0,95,0.01,,,2.16,,2013-04-09 19:41:00,
2013-04-09 14:52:00,45.0,44.0,29.85,NE,36,2.0,8.0,95,0.00,,,2.16,,2013-04-09 19:52:00,
2013-04-09 15:02:00,45.0,44.0,29.86,North,9,4.0,8.0,95,0.00,,,2.16,,2013-04-09 20:02:00,
2013-04-09 15:12:00,45.0,44.0,29.86,North,9,4.0,8.0,95,0.00,,,2.16,,2013-04-09 20:12:00,
2013-04-09 15:22:00,45.0,44.0,29.85,NE,47,6.0,10.0,95,0.00,,,2.16,,2013-04-09 20:22:00,
2013-04-09 15:33:00,45.0,44.0,29.85,NNE,15,4.0,13.0,95,0.00,,,2.16,,2013-04-09 20:33:00,
2013-04-09 15:42:00,45.0,44.0,29.85,NNE,15,4.0,13.0,95,0.00,,,2.16,,2013-04-09 20:42:00,
2013-04-09 15:52:00,45.0,44.0,29.85,NE,51,5.0,12.0,95,0.00,,,2.16,,2013-04-09 20:52:00,
2013-04-09 16:02:00,44.0,43.0,29.85,NNE,32,5.0,10.0,95,0.00,,,2.16,,2013-04-09 21:02:00,
2013-04-09 16:13:00,44.0,43.0,29.85,NNE,32,5.0,10.0,95,0.00,,,2.16,,2013-04-09 21:13:00,
2013-04-09 16:22:00,44.0,43.0,29.85,NNE,32,5.0,10.0,95,0.00,,,2.16,,2013-04-09 21:22:00,
2013-04-09 16:33:00,44.0,42.0,29.87,NNE,26,7.0,12.0,94,0.00,,,2.16,,2013-04-09 21:33:00,
2013-04-09 16:52:00,44.0,42.0,29.87,NE,35,5.0,10.0,94,0.00,,,2.16,,2013-04-09 21:52:00,
2013-04-09 17:03:00,43.0,41.0,29.88,ENE,67,5.0,12.0,94,0.03,,,2.19,,2013-04-09 22:03:00,
2013-04-09 17:12:00,43.0,41.0,29.88,ENE,67,5.0,12.0,94,0.03,,,2.19,,2013-04-09 22:12:00,
2013-04-09 17:23:00,42.0,40.0,29.89,NNE,32,5.0,16.0,94,0.03,,,2.19,,2013-04-09 22:23:00,
2013-04-09 17:33:00,42.0,41.0,29.89,NE,42,9.0,14.0,95,0.04,,,2.20,,2013-04-09 22:33:00,
2013-04-09 17:42:00,42.0,41.0,29.89,NE,42,9.0,14.0,95,0.04,,,2.20,,2013-04-09 22:42:00,
2013-04-09 17:53:00,42.0,41.0,29.90,NE,44,8.0,13.0,95,0.04,,,2.20,,2013-04-09 22:53:00,
2013-04-09 18:03:00,42.0,41.0,29.91,NE,54,7.0,14.0,95,0.01,,,2.20,,2013-04-09 23:03:00,
2013-04-09 18:12:00,42.0,41.0,29.91,NE,54,7.0,14.0,95,0.01,,,2.20,,2013-04-09 23:12:00,
2013-04-09 18:22:00,42.0,41.0,29.91,NE,39,6.0,16.0,95,0.01,,,2.20,,2013-04-09 23:22:00,
2013-04-09 18:32:00,42.0,41.0,29.91,NE,47,5.0,10.0,95,0.00,,,2.20,,2013-04-09 23:32:00,
2013-04-09 18:42:00,42.0,41.0,29.91,NE,47,5.0,10.0,95,0.00,,,2.20,,2013-04-09 23:42:00,
2013-04-09 18:52:00,42.0,41.0,29.91,East,83,6.0,20.0,95,0.00,,,2.20,,2013-04-09 23:52:00,
2013-04-09 19:03:00,42.0,41.0,29.91,East,83,6.0,20.0,95,0.00,,,2.20,,2013-04-10 00:03:00,
2013-04-09 19:12:00,42.0,41.0,29.91,East,83,6.0,20.0,95,0.00,,,2.20,,2013-04-10 00:12:00,
2013-04-09 19:23:00,42.0,40.0,29.92,ENE,61,9.0,17.0,94,0.00,,,2.20,,2013-04-10 00:23:00,
2013-04-09 19:32:00,42.0,40.0,29.92,ENE,76,6.0,13.0,94,0.00,,,2.20,,2013-04-10 00:32:00,
2013-04-09 19:42:00,42.0,40.0,29.92,ENE,76,6.0,13.0,94,0.00,,,2.20,,2013-04-10 00:42:00,
2013-04-09 19:52:00,41.0,39.0,29.93,NE,55,4.0,12.0,94,0.00,,,2.20,,2013-04-10 00:52:00,
2013-04-09 20:02:00,41.0,39.0,29.95,NE,38,8.0,18.0,93,0.00,,,2.20,,2013-04-10 01:02:00,
2013-04-09 20:12:00,41.0,39.0,29.95,NE,35,7.0,14.0,93,0.00,,,2.20,,2013-04-10 01:12:00,
2013-04-09 20:23:00,41.0,39.0,29.95,NE,35,7.0,14.0,93,0.00,,,2.20,,2013-04-10 01:23:00,
2013-04-09 20:32:00,41.0,39.0,29.95,NE,46,6.0,15.0,94,0.00,,,2.20,,2013-04-10 01:32:00,
2013-04-09 20:42:00,41.0,39.0,29.95,NE,46,6.0,15.0,94,0.00,,,2.20,,2013-04-10 01:42:00,
2013-04-09 20:52:00,40.0,38.0,29.94,NE,55,6.0,18.0,94,0.00,,,2.20,,2013-04-10 01:52:00,
2013-04-09 21:02:00,40.0,38.0,29.96,NNE,22,6.0,16.0,94,0.00,,,2.20,,2013-04-10 02:02:00,
2013-04-09 21:12:00,40.0,38.0,29.96,NNE,22,6.0,16.0,94,0.00,,,2.20,,2013-04-10 02:12:00,
2013-04-09 21:22:00,40.0,38.0,29.95,NE,46,10.0,17.0,94,0.00,,,2.20,,2013-04-10 02:22:00,
2013-04-09 21:32:00,40.0,38.0,29.95,NNE,22,6.0,18.0,93,0.01,,,2.21,,2013-04-10 02:32:00,
2013-04-09 21:43:00,40.0,38.0,29.95,NNE,22,6.0,18.0,93,0.01,,,2.21,,2013-04-10 02:43:00,
2013-04-09 21:52:00,40.0,38.0,29.95,NNE,17,6.0,16.0,93,0.01,,,2.21,,2013-04-10 02:52:00,
2013-04-09 22:02:00,40.0,38.0,29.96,NE,36,9.0,20.0,93,0.01,,,2.21,,2013-04-10 03:02:00,
2013-04-09 22:12:00,40.0,38.0,29.96,NE,36,9.0,20.0,93,0.01,,,2.21,,2013-04-10 03:12:00,
2013-04-09 22:22:00,40.0,38.0,29.97,East,79,6.0,16.0,93,0.01,,,2.21,,2013-04-10 03:22:00,
2013-04-09 22:33:00,40.0,38.0,29.95,NE,56,9.0,20.0,93,0.00,,,2.21,,2013-04-10 03:33:00,
2013-04-09 22:43:00,40.0,38.0,29.95,NE,56,9.0,20.0,93,0.00,,,2.21,,2013-04-10 03:43:00,
2013-04-09 22:52:00,40.0,38.0,29.96,ENE,77,9.0,18.0,93,0.00,,,2.21,,2013-04-10 03:52:00,
2013-04-09 23:03:00,40.0,38.0,29.95,ESE,103,7.0,15.0,93,0.00,,,2.21,,2013-04-10 04:03:00,
2013-04-09 23:13:00,40.0,38.0,29.95,ESE,103,7.0,15.0,93,0.00,,,2.21,,2013-04-10 04:13:00,
2013-04-09 23:23:00,40.0,38.0,29.96,East,87,7.0,17.0,93,0.00,,,2.21,,2013-04-10 04:23:00,
2013-04-09 23:33:00,40.0,38.0,29.95,ENE,65,7.0,16.0,93,0.00,,,2.21,,2013-04-10 04:33:00,
2013-04-09 23:42:00,40.0,38.0,29.95,ENE,65,7.0,16.0,93,0.00,,,2.21,,2013-04-10 04:42:00,
2013-04-09 23:52:00,40.0,38.0,29.95,NE,55,7.0,20.0,93,0.00,,,2.21,,2013-04-10 04:52:00,